Time;durP1;ratioP1;P1;durP2;ratioP2;P2;SDS_P1;SDS_P2;PMS_P1;PMS_P2;Temp;Humidity;BMP_temperature;BMP_pressure;BME280_temperature;BME280_humidity;BME280_pressure;Samples;Min_cycle;Max_cycle;Signal;HPM_P1;HPM_P2
2020/12/16 00:01:05;;;;;;;;;;;;;;;6.66;100.00;99294.66;5094940;28;19925;-77
2020/12/16 00:03:33;;;;;;;;;;;;;;;6.71;100.00;99301.81;5095162;28;20249;-77
2020/12/16 00:05:59;;;;;;;;;;;;;;;6.55;100.00;99315.22;5077093;28;20301;-77
2020/12/16 00:08:27;;;;;;;;;;;;;;;6.57;100.00;99310.09;5077182;28;19967;-77
2020/12/16 00:10:53;;;;;;;;;;;;;;;6.52;100.00;99302.13;5095068;28;20271;-77
2020/12/16 00:13:20;;;;;;;;;;;;;;;6.51;100.00;99290.22;5095026;28;19924;-77
2020/12/16 00:15:48;;;;;;;;;;;;;;;6.57;100.00;99296.19;5075805;28;19970;-77
2020/12/16 00:18:15;;;;;;;;;;;;;;;6.65;100.00;99298.59;5094804;28;19931;-77
2020/12/16 00:20:41;;;;;;;;;;;;;;;6.74;100.00;99285.13;5076567;28;19928;-77
2020/12/16 00:23:09;;;;;;;;;;;;;;;6.65;100.00;99304.16;5094683;28;19974;-77
2020/12/16 00:25:36;;;;;;;;;;;;;;;6.74;100.00;99298.25;5094815;28;19924;-77
2020/12/16 00:28:02;;;;;;;;;;;;;;;6.83;100.00;99301.44;5094950;28;19924;-77
2020/12/16 00:30:29;;;;;;;;;;;;;;;6.94;100.00;99299.47;5076744;28;19930;-77
2020/12/16 00:32:55;;;;;;;;;;;;;;;6.91;100.00;99294.69;5076698;28;19931;-77
2020/12/16 00:35:21;;;;;;;;;;;;;;;6.90;100.00;99280.03;5076274;28;19993;-77
2020/12/16 00:37:48;;;;;;;;;;;;;;;6.95;100.00;99281.63;5076487;28;19977;-77
2020/12/16 00:40:17;;;;;;;;;;;;;;;6.99;100.00;99283.22;5094509;28;19953;-77
2020/12/16 00:42:50;;;;;;;;;;;;;;;6.98;100.00;99281.63;5094428;28;19967;-77
2020/12/16 00:45:17;;;;;;;;;;;;;;;7.04;100.00;99276.47;5094772;28;19931;-77
2020/12/16 00:47:43;;;;;;;;;;;;;;;7.06;100.00;99290.75;5094489;28;19969;-77
2020/12/16 00:50:10;;;;;;;;;;;;;;;7.05;100.00;99269.72;5076265;28;19924;-77
2020/12/16 00:52:48;;;;;;;;;;;;;;;7.01;100.00;99277.28;5078232;28;20287;-77
2020/12/16 00:55:14;;;;;;;;;;;;;;;7.07;100.00;99270.91;5076448;28;19924;-77
2020/12/16 00:57:42;;;;;;;;;;;;;;;7.06;100.00;99268.53;5076328;28;20381;-77
2020/12/16 01:00:10;;;;;;;;;;;;;;;7.06;100.00;99268.53;5094190;28;19924;-77
2020/12/16 01:02:39;;;;;;;;;;;;;;;7.09;100.00;99268.53;5076021;28;20035;-77
2020/12/16 01:05:05;;;;;;;;;;;;;;;7.08;100.00;99271.72;5076335;28;20391;-77
2020/12/16 01:07:32;;;;;;;;;;;;;;;7.10;100.00;99261.78;5076198;28;20279;-77
2020/12/16 01:09:59;;;;;;;;;;;;;;;7.10;100.00;99247.88;5076306;28;19978;-77
2020/12/16 01:12:25;;;;;;;;;;;;;;;7.09;100.00;99264.97;5076363;28;20014;-77
2020/12/16 01:14:52;;;;;;;;;;;;;;;7.12;100.00;99222.47;5059647;28;19928;-77
2020/12/16 01:17:19;;;;;;;;;;;;;;;7.18;100.00;99257.03;5075823;28;19924;-77
2020/12/16 01:19:45;;;;;;;;;;;;;;;7.20;100.00;99257.44;5094186;28;19924;-77
2020/12/16 01:22:12;;;;;;;;;;;;;;;7.25;100.00;99254.25;5076261;28;19959;-77
2020/12/16 01:24:39;;;;;;;;;;;;;;;7.27;100.00;99251.88;5094031;28;20011;-77
2020/12/16 01:27:06;;;;;;;;;;;;;;;7.28;100.00;99259.03;5095057;28;19963;-77
2020/12/16 01:29:36;;;;;;;;;;;;;;;7.36;100.00;99224.50;5080539;28;19931;-77
2020/12/16 01:32:03;;;;;;;;;;;;;;;7.30;100.00;99223.28;5063371;28;19928;-77
2020/12/16 01:34:34;;;;;;;;;;;;;;;7.34;100.00;99194.31;5080317;28;19924;-76
2020/12/16 01:37:07;;;;;;;;;;;;;;;7.37;100.00;99214.94;5063134;28;20011;-75
2020/12/16 01:39:42;;;;;;;;;;;;;;;7.37;100.00;99223.28;5080266;28;19928;-75
2020/12/16 01:42:12;;;;;;;;;;;;;;;7.44;100.00;99211.38;5063133;28;20236;-75
2020/12/16 01:44:38;;;;;;;;;;;;;;;7.50;100.00;99209.78;5080081;28;20015;-75
2020/12/16 01:47:07;;;;;;;;;;;;;;;7.45;100.00;99207.41;5079757;28;19931;-75
2020/12/16 01:49:38;;;;;;;;;;;;;;;7.51;100.00;99197.44;5079930;28;19928;-75
2020/12/16 01:52:06;;;;;;;;;;;;;;;7.48;100.00;99215.75;5097718;28;19924;-75
2020/12/16 01:54:38;;;;;;;;;;;;;;;7.48;100.00;99198.25;5079658;28;20010;-75
2020/12/16 01:57:12;;;;;;;;;;;;;;;7.51;100.00;99201.03;5079953;28;19931;-75
2020/12/16 01:59:47;;;;;;;;;;;;;;;7.50;100.00;99202.22;5079502;28;19966;-75
2020/12/16 02:02:24;;;;;;;;;;;;;;;7.49;100.00;99172.84;5064112;28;19924;-75
2020/12/16 02:04:51;;;;;;;;;;;;;;;7.45;100.00;99174.84;5079418;28;20305;-75
2020/12/16 02:07:21;;;;;;;;;;;;;;;7.45;100.00;99163.72;5079448;28;19928;-75
2020/12/16 02:09:48;;;;;;;;;;;;;;;7.46;100.00;99170.84;5062806;28;19950;-75
2020/12/16 02:12:19;;;;;;;;;;;;;;;7.42;100.00;99147.84;5079659;28;19946;-75
2020/12/16 02:14:46;;;;;;;;;;;;;;;7.48;100.00;99146.22;5062558;28;19924;-75
2020/12/16 02:17:16;;;;;;;;;;;;;;;7.46;100.00;99131.94;5079268;28;19924;-77
2020/12/16 02:19:54;;;;;;;;;;;;;;;7.50;100.00;99135.47;5079610;28;20018;-75
2020/12/16 02:22:20;;;;;;;;;;;;;;;7.45;100.00;99116.47;5079242;28;19946;-75
2020/12/16 02:24:56;;;;;;;;;;;;;;;7.43;100.00;99126.38;5079232;28;20073;-77
2020/12/16 02:27:24;;;;;;;;;;;;;;;7.50;100.00;99123.59;5062734;28;20355;-75
2020/12/16 02:29:53;;;;;;;;;;;;;;;7.46;100.00;99115.25;5078862;28;19928;-75
2020/12/16 02:32:40;;;;;;;;;;;;;;;7.44;100.00;99125.97;5096917;28;19977;-75
2020/12/16 02:35:08;;;;;;;;;;;;;;;7.45;100.00;99129.56;5078754;28;20006;-76
2020/12/16 02:37:35;;;;;;;;;;;;;;;7.44;100.00;99128.75;5078576;28;19924;-75
2020/12/16 02:40:03;;;;;;;;;;;;;;;7.48;100.00;99045.34;5077557;28;20018;-78
2020/12/16 02:42:31;;;;;;;;;;;;;;;7.38;100.00;99135.13;5078604;28;19947;-75
2020/12/16 02:44:59;;;;;;;;;;;;;;;7.43;100.00;99121.63;5078551;28;20280;-75
2020/12/16 02:47:37;;;;;;;;;;;;;;;7.39;100.00;99104.94;5078812;28;19924;-75
2020/12/16 02:50:08;;;;;;;;;;;;;;;7.38;100.00;99102.56;5078393;28;19924;-75
2020/12/16 02:52:42;;;;;;;;;;;;;;;7.36;100.00;99116.09;5078727;28;19947;-75
2020/12/16 02:55:15;;;;;;;;;;;;;;;7.39;100.00;99087.47;5046193;28;19939;-75
2020/12/16 02:57:55;;;;;;;;;;;;;;;7.43;100.00;99076.34;5078423;28;20355;-77
2020/12/16 03:00:23;;;;;;;;;;;;;;;7.39;100.00;99059.69;5078073;28;20481;-75
2020/12/16 03:03:07;;;;;;;;;;;;;;;7.36;100.00;99088.28;5096270;28;20015;-75
2020/12/16 03:05:52;;;;;;;;;;;;;;;7.39;100.00;99076.38;5064185;28;19967;-77
2020/12/16 03:08:42;;;;;;;;;;;;;;;7.33;100.00;99044.59;5077435;28;19973;-75
2020/12/16 03:11:16;;;;;;;;;;;;;;;7.38;100.00;99052.53;5078252;28;19924;-75
2020/12/16 03:13:46;;;;;;;;;;;;;;;7.39;100.00;99021.53;5061191;28;19930;-75
2020/12/16 03:16:19;;;;;;;;;;;;;;;7.37;100.00;99056.50;5077912;28;20289;-75
2020/12/16 03:18:49;;;;;;;;;;;;;;;7.33;100.00;99061.25;5078237;28;19932;-75
2020/12/16 03:21:24;;;;;;;;;;;;;;;7.36;100.00;99074.38;5077919;28;19932;-75
2020/12/16 03:23:58;;;;;;;;;;;;;;;7.38;100.00;99069.19;5077842;28;20317;-75
2020/12/16 03:26:51;;;;;;;;;;;;;;;7.38;100.00;99057.31;5083467;28;20114;-75
2020/12/16 03:29:37;;;;;;;;;;;;;;;7.40;100.00;99050.13;5078011;28;20295;-75
2020/12/16 03:32:22;;;;;;;;;;;;;;;7.42;100.00;99044.19;5077715;28;20413;-75
2020/12/16 03:35:02;;;;;;;;;;;;;;;7.44;100.00;99039.00;5077802;28;19946;-75
2020/12/16 03:37:29;;;;;;;;;;;;;;;7.40;100.00;99027.91;5077447;28;20287;-75
2020/12/16 03:39:56;;;;;;;;;;;;;;;7.38;100.00;99013.59;5077526;28;20065;-77
2020/12/16 03:42:30;;;;;;;;;;;;;;;7.44;100.00;99027.91;5077814;28;19964;-75
2020/12/16 03:44:56;;;;;;;;;;;;;;;7.38;100.00;99010.81;5077239;28;20018;-75
2020/12/16 03:47:23;;;;;;;;;;;;;;;7.44;100.00;99016.78;5060732;28;19928;-75
2020/12/16 03:49:51;;;;;;;;;;;;;;;7.32;100.00;99004.91;5095076;28;20347;-75
2020/12/16 03:52:18;;;;;;;;;;;;;;;7.31;100.00;98986.63;5077370;28;20014;-75
2020/12/16 03:55:06;;;;;;;;;;;;;;;7.39;100.00;98993.75;5063750;28;20351;-75
2020/12/16 03:57:52;;;;;;;;;;;;;;;7.40;100.00;99030.69;5073460;28;19927;-75
2020/12/16 04:00:30;;;;;;;;;;;;;;;7.43;100.00;98998.50;5077127;28;19924;-75
2020/12/16 04:03:03;;;;;;;;;;;;;;;7.39;100.00;98999.31;5077137;28;19924;-75
2020/12/16 04:05:42;;;;;;;;;;;;;;;7.45;100.00;99002.47;5077018;28;20371;-75
2020/12/16 04:08:09;;;;;;;;;;;;;;;7.47;100.00;98982.63;5060405;28;20450;-75
2020/12/16 04:10:55;;;;;;;;;;;;;;;7.47;100.00;98983.38;5076906;28;20386;-75
2020/12/16 04:13:23;;;;;;;;;;;;;;;7.52;100.00;99001.63;5077112;28;19963;-75
2020/12/16 04:15:49;;;;;;;;;;;;;;;7.55;100.00;98990.50;5060317;28;19924;-75
2020/12/16 04:18:16;;;;;;;;;;;;;;;7.52;100.00;99005.22;5076684;28;19925;-75
2020/12/16 04:20:43;;;;;;;;;;;;;;;7.49;100.00;99005.22;5076779;28;20341;-75
2020/12/16 04:23:10;;;;;;;;;;;;;;;7.46;100.00;98989.34;5076699;28;20359;-75
2020/12/16 04:25:39;;;;;;;;;;;;;;;7.51;100.00;98972.25;5076532;28;19934;-75
2020/12/16 04:28:11;;;;;;;;;;;;;;;7.55;100.00;98979.38;5061022;28;20352;-77
2020/12/16 04:30:40;;;;;;;;;;;;;;;7.48;100.00;98989.75;5076689;28;19969;-77
2020/12/16 04:33:06;;;;;;;;;;;;;;;7.50;100.00;98979.78;5076453;28;19924;-75
2020/12/16 04:35:33;;;;;;;;;;;;;;;7.50;100.00;98977.00;5076712;28;19924;-75
2020/12/16 04:38:00;;;;;;;;;;;;;;;7.49;100.00;98975.44;5076354;28;20379;-75
2020/12/16 04:40:28;;;;;;;;;;;;;;;7.50;100.00;98999.25;5076088;28;20010;-75
2020/12/16 04:43:06;;;;;;;;;;;;;;;7.46;100.00;98995.72;5059589;28;20378;-76
2020/12/16 04:45:37;;;;;;;;;;;;;;;7.57;100.00;98959.50;5060241;28;20367;-76
2020/12/16 04:48:05;;;;;;;;;;;;;;;7.61;100.00;98972.19;5076535;28;20010;-75
2020/12/16 04:50:32;;;;;;;;;;;;;;;7.58;100.00;98961.88;5076284;28;20387;-75
2020/12/16 04:53:09;;;;;;;;;;;;;;;7.57;100.00;98938.06;5060014;28;20323;-75
2020/12/16 04:55:45;;;;;;;;;;;;;;;7.57;100.00;98951.97;5060599;28;19931;-75
2020/12/16 04:58:23;;;;;;;;;;;;;;;7.58;100.00;98936.84;5076412;28;19977;-75
2020/12/16 05:00:50;;;;;;;;;;;;;;;7.57;100.00;98915.81;5062852;28;19924;-75
2020/12/16 05:03:39;;;;;;;;;;;;;;;7.55;100.00;98940.44;5053122;28;19925;-75
2020/12/16 05:06:11;;;;;;;;;;;;;;;7.62;100.00;98943.19;5052726;28;19932;-76
2020/12/16 05:08:37;;;;;;;;;;;;;;;7.61;100.00;98922.16;5052564;28;19931;-75
2020/12/16 05:11:04;;;;;;;;;;;;;;;7.59;100.00;98901.50;5053728;28;19925;-75
2020/12/16 05:13:31;;;;;;;;;;;;;;;7.62;100.00;98925.72;5053769;28;20007;-75
2020/12/16 05:16:00;;;;;;;;;;;;;;;7.57;100.00;98909.47;5053680;28;19924;-75
2020/12/16 05:18:27;;;;;;;;;;;;;;;7.51;100.00;98914.66;5052395;28;20395;-75
2020/12/16 05:20:54;;;;;;;;;;;;;;;7.49;100.00;98919.84;5053553;28;19928;-75
2020/12/16 05:23:25;;;;;;;;;;;;;;;7.61;100.00;98915.78;5052428;28;19979;-75
2020/12/16 05:26:00;;;;;;;;;;;;;;;7.62;100.00;98940.41;5053743;28;19929;-75
2020/12/16 05:28:28;;;;;;;;;;;;;;;7.65;100.00;98927.69;5053662;28;20288;-75
2020/12/16 05:30:55;;;;;;;;;;;;;;;7.64;100.00;98920.53;5053370;28;19925;-75
2020/12/16 05:33:22;;;;;;;;;;;;;;;7.52;100.00;98907.91;5053556;28;19924;-75
2020/12/16 05:35:50;;;;;;;;;;;;;;;7.61;100.00;98894.34;5053708;28;19929;-75
2020/12/16 05:38:19;;;;;;;;;;;;;;;7.63;100.00;98893.94;5053343;28;19932;-75
2020/12/16 05:40:45;;;;;;;;;;;;;;;7.56;100.00;98911.44;5050837;28;20344;-75
2020/12/16 05:43:26;;;;;;;;;;;;;;;7.57;100.00;98893.59;5052175;28;19944;-75
2020/12/16 05:45:54;;;;;;;;;;;;;;;7.54;100.00;98904.72;5053512;28;20020;-75
2020/12/16 05:48:26;;;;;;;;;;;;;;;7.57;100.00;98901.13;5053725;28;19928;-75
2020/12/16 05:50:54;;;;;;;;;;;;;;;7.68;100.00;98905.41;5052329;28;19929;-75
2020/12/16 05:53:21;;;;;;;;;;;;;;;7.59;100.00;98912.63;5053303;28;19925;-75
2020/12/16 05:56:01;;;;;;;;;;;;;;;7.62;100.00;98907.03;5053516;28;19925;-75
2020/12/16 05:58:31;;;;;;;;;;;;;;;7.54;100.00;98899.16;5051996;28;19925;-75
2020/12/16 06:00:59;;;;;;;;;;;;;;;7.60;100.00;98892.75;5052131;28;19924;-75
2020/12/16 06:03:26;;;;;;;;;;;;;;;7.65;100.00;98891.53;5053253;28;19931;-75
2020/12/16 06:05:54;;;;;;;;;;;;;;;7.72;100.00;98899.81;5053295;28;19935;-77
2020/12/16 06:08:21;;;;;;;;;;;;;;;7.73;100.00;98893.03;5053093;28;20015;-75
2020/12/16 06:10:49;;;;;;;;;;;;;;;7.77;100.00;98882.72;5053104;28;19944;-75
2020/12/16 06:13:16;;;;;;;;;;;;;;;7.79;100.00;98897.78;5054199;28;20279;-75
2020/12/16 06:15:48;;;;;;;;;;;;;;;7.82;100.00;98899.75;5056986;28;19960;-75
2020/12/16 06:18:16;;;;;;;;;;;;;;;7.82;100.00;98921.19;5057149;28;19924;-75
2020/12/16 06:20:43;;;;;;;;;;;;;;;7.84;100.00;98919.59;5038953;28;19928;-75
2020/12/16 06:23:21;;;;;;;;;;;;;;;7.95;100.00;98925.09;5056621;28;19925;-75
2020/12/16 06:25:48;;;;;;;;;;;;;;;7.98;100.00;98907.56;5055750;28;19925;-75
2020/12/16 06:28:15;;;;;;;;;;;;;;;7.94;100.00;98932.63;5055631;28;19925;-76
2020/12/16 06:30:58;;;;;;;;;;;;;;;7.96;100.00;98916.31;5055613;28;19971;-76
2020/12/16 06:33:30;;;;;;;;;;;;;;;7.87;100.00;98896.53;5055621;28;19951;-75
2020/12/16 06:36:04;;;;;;;;;;;;;;;7.88;100.00;98931.47;5055481;28;19925;-75
2020/12/16 06:38:38;;;;;;;;;;;;;;;7.85;100.00;98921.19;5055595;28;19971;-75
2020/12/16 06:41:09;;;;;;;;;;;;;;;7.95;100.00;98941.78;5056536;28;19925;-75
2020/12/16 06:43:37;;;;;;;;;;;;;;;7.88;100.00;98923.13;5055458;28;19925;-75
2020/12/16 06:46:23;;;;;;;;;;;;;;;7.90;100.00;98912.41;5055237;28;20418;-76
2020/12/16 06:48:50;;;;;;;;;;;;;;;7.84;100.00;98919.59;5056299;28;19932;-75
2020/12/16 06:51:17;;;;;;;;;;;;;;;7.88;100.00;98922.34;5056225;28;19932;-75
2020/12/16 06:53:44;;;;;;;;;;;;;;;7.90;100.00;98895.72;5056551;28;19974;-75
2020/12/16 06:56:19;;;;;;;;;;;;;;;7.85;100.00;98896.13;5038375;28;19925;-75
2020/12/16 06:58:46;;;;;;;;;;;;;;;7.71;100.00;98937.94;5054948;28;20297;-76
2020/12/16 07:01:13;;;;;;;;;;;;;;;7.77;100.00;98919.63;5055172;28;19925;-76
2020/12/16 07:03:40;;;;;;;;;;;;;;;7.69;100.00;98923.69;5055179;28;20333;-75
2020/12/16 07:06:13;;;;;;;;;;;;;;;7.68;100.00;98933.22;5056267;28;19924;-77
2020/12/16 07:08:40;;;;;;;;;;;;;;;7.66;100.00;98932.84;5038606;28;19925;-75
2020/12/16 07:11:08;;;;;;;;;;;;;;;7.74;100.00;98942.69;5055845;28;20024;-75
2020/12/16 07:13:35;;;;;;;;;;;;;;;7.77;100.00;98933.53;5054766;28;19936;-75
2020/12/16 07:16:13;;;;;;;;;;;;;;;7.73;100.00;98984.81;5054873;28;20443;-75
2020/12/16 07:18:43;;;;;;;;;;;;;;;7.77;100.00;98930.00;5054763;28;19932;-75
2020/12/16 07:21:09;;;;;;;;;;;;;;;7.79;100.00;98938.69;5055610;28;19925;-75
2020/12/16 07:23:39;;;;;;;;;;;;;;;7.67;100.00;98942.75;5054665;28;19925;-75
2020/12/16 07:26:06;;;;;;;;;;;;;;;7.77;100.00;98911.28;5055225;28;20279;-75
2020/12/16 07:28:35;;;;;;;;;;;;;;;7.71;100.00;98954.63;5055757;28;19929;-75
2020/12/16 07:31:06;;;;;;;;;;;;;;;7.78;100.00;98949.06;5054595;28;19924;-75
2020/12/16 07:33:33;;;;;;;;;;;;;;;7.74;100.00;98931.56;5038061;28;19986;-74
2020/12/16 07:36:00;;;;;;;;;;;;;;;7.71;100.00;98937.94;5055465;28;19959;-75
2020/12/16 07:38:26;;;;;;;;;;;;;;;7.71;100.00;98948.31;5055439;28;20426;-74
2020/12/16 07:40:56;;;;;;;;;;;;;;;7.70;100.00;98911.34;5055205;28;20031;-75
2020/12/16 07:43:23;;;;;;;;;;;;;;;7.62;100.00;98962.66;5055540;28;20326;-75
2020/12/16 07:46:01;;;;;;;;;;;;;;;7.62;100.00;98964.66;5054586;28;19956;-75
2020/12/16 07:48:28;;;;;;;;;;;;;;;7.69;100.00;98954.28;5055318;28;20020;-75
2020/12/16 07:50:59;;;;;;;;;;;;;;;7.70;100.00;98994.78;5055398;28;19925;-75
2020/12/16 07:53:25;;;;;;;;;;;;;;;7.74;100.00;98955.84;5055344;28;19924;-75
2020/12/16 07:56:01;;;;;;;;;;;;;;;7.72;100.00;98945.13;5055185;28;19932;-75
2020/12/16 07:58:32;;;;;;;;;;;;;;;7.76;100.00;98989.56;5055387;28;20279;-75
2020/12/16 08:01:05;;;;;;;;;;;;;;;7.79;100.00;98978.44;5077294;28;19947;-75
2020/12/16 08:03:32;;;;;;;;;;;;;;;7.80;100.00;98979.25;5095074;28;20004;-75
2020/12/16 08:05:59;;;;;;;;;;;;;;;7.81;100.00;98981.63;5077252;28;19924;-75
2020/12/16 08:08:26;;;;;;;;;;;;;;;7.81;100.00;98950.22;5095329;28;19931;-77
2020/12/16 08:10:53;;;;;;;;;;;;;;;7.76;100.00;98951.44;5077106;28;19961;-77
2020/12/16 08:13:22;;;;;;;;;;;;;;;7.75;100.00;98977.69;5095236;28;19931;-76
2020/12/16 08:15:50;;;;;;;;;;;;;;;7.80;100.00;98957.75;5095067;28;19928;-76
2020/12/16 08:18:19;;;;;;;;;;;;;;;7.78;100.00;98949.06;5094930;28;19924;-77
2020/12/16 08:20:46;;;;;;;;;;;;;;;7.83;100.00;98961.75;5094992;28;19974;-76
2020/12/16 08:23:13;;;;;;;;;;;;;;;7.85;100.00;98932.31;5095131;28;19924;-79
2020/12/16 08:25:43;;;;;;;;;;;;;;;7.82;100.00;98958.16;5060206;28;19924;-79
2020/12/16 08:28:09;;;;;;;;;;;;;;;7.82;100.00;98983.19;5060354;28;20011;-76
2020/12/16 08:30:38;;;;;;;;;;;;;;;7.79;100.00;98995.13;5094701;28;19924;-75
2020/12/16 08:33:08;;;;;;;;;;;;;;;7.79;100.00;98952.59;5094538;28;19924;-73
2020/12/16 08:35:48;;;;;;;;;;;;;;;7.78;100.00;98959.38;5094678;28;19931;-74
2020/12/16 08:38:37;;;;;;;;;;;;;;;7.80;100.00;98985.56;5069996;28;20455;-75
2020/12/16 08:41:08;;;;;;;;;;;;;;;7.69;100.00;98945.13;5091108;28;19928;-73
2020/12/16 08:43:35;;;;;;;;;;;;;;;7.71;100.00;98967.78;5089205;28;20026;-72
2020/12/16 08:46:02;;;;;;;;;;;;;;;7.83;100.00;98973.63;5071078;28;19924;-73
2020/12/16 08:48:42;;;;;;;;;;;;;;;7.77;100.00;98963.38;5090501;27;19935;-73
2020/12/16 08:51:10;;;;;;;;;;;;;;;7.86;100.00;98939.44;5090715;27;20007;-73
2020/12/16 08:53:45;;;;;;;;;;;;;;;7.83;100.00;98962.50;5076011;28;20293;-73
2020/12/16 08:56:28;;;;;;;;;;;;;;;7.83;100.00;98956.16;5105533;28;19930;-73
2020/12/16 08:59:14;;;;;;;;;;;;;;;7.82;100.00;98957.34;5071992;28;19928;-73
2020/12/16 09:01:45;;;;;;;;;;;;;;;7.80;100.00;98976.47;5090013;28;20391;-73
2020/12/16 09:04:21;;;;;;;;;;;;;;;7.74;100.00;98948.25;5090494;28;19931;-72
2020/12/16 09:07:00;;;;;;;;;;;;;;;7.76;100.00;98917.25;5089941;28;19970;-72
2020/12/16 09:09:27;;;;;;;;;;;;;;;7.73;100.00;98952.25;5090435;28;19928;-73
2020/12/16 09:11:54;;;;;;;;;;;;;;;7.77;100.00;98932.78;5070826;28;19931;-72
2020/12/16 09:14:23;;;;;;;;;;;;;;;7.76;100.00;98940.31;5103277;28;19963;-72
2020/12/16 09:16:50;;;;;;;;;;;;;;;7.85;100.00;98949.00;5110060;28;20541;-73
2020/12/16 09:19:17;;;;;;;;;;;;;;;7.92;100.00;98935.03;5092071;28;20012;-72
2020/12/16 09:21:44;;;;;;;;;;;;;;;7.96;100.00;98944.16;5085781;28;19930;-72
2020/12/16 09:24:11;;;;;;;;;;;;;;;7.95;100.00;98964.81;5103903;28;19924;-72
2020/12/16 09:26:37;;;;;;;;;;;;;;;7.99;100.00;98907.16;5077480;28;19924;-73
2020/12/16 09:29:26;;;;;;;;;;;;;;;7.98;100.00;98946.53;5084778;28;20030;-73
2020/12/16 09:32:13;;;;;;;;;;;;;;;8.07;100.00;98949.63;5072776;28;20370;-73
2020/12/16 09:34:45;;;;;;;;;;;;;;;8.01;100.00;98957.59;5102415;28;19924;-72
2020/12/16 09:37:19;;;;;;;;;;;;;;;7.97;100.00;98942.13;5091400;28;19924;-73
2020/12/16 09:39:47;;;;;;;;;;;;;;;8.12;100.00;98952.00;5091659;28;19923;-73
2020/12/16 09:42:18;;;;;;;;;;;;;;;8.08;100.00;98988.19;5067695;28;20319;-72
2020/12/16 09:44:46;;;;;;;;;;;;;;;8.14;100.00;98961.50;5089206;27;19931;-74
2020/12/16 09:47:14;;;;;;;;;;;;;;;8.22;100.00;98976.16;5087747;28;20440;-75
2020/12/16 09:49:40;;;;;;;;;;;;;;;8.17;100.00;98987.72;5110095;27;20359;-74
2020/12/16 09:52:27;;;;;;;;;;;;;;;8.27;100.00;98964.63;5095469;28;19924;-74
2020/12/16 09:54:54;;;;;;;;;;;;;;;8.21;100.00;98969.78;5114375;28;19928;-74
2020/12/16 09:57:21;;;;;;;;;;;;;;;8.22;100.00;98954.72;5074142;28;19989;-73
2020/12/16 09:59:48;;;;;;;;;;;;;;;8.15;100.00;98926.88;5102342;28;19934;-74
2020/12/16 10:02:16;;;;;;;;;;;;;;;8.17;100.00;98921.72;5092281;28;19924;-74
2020/12/16 10:04:42;;;;;;;;;;;;;;;8.14;100.00;98930.88;5092774;28;19928;-73
2020/12/16 10:07:09;;;;;;;;;;;;;;;8.14;100.00;98933.66;5092483;28;19951;-72
2020/12/16 10:09:38;;;;;;;;;;;;;;;8.11;100.00;98942.84;5093695;28;19947;-73
2020/12/16 10:12:05;;;;;;;;;;;;;;;8.09;100.00;98945.22;5099950;28;19980;-74
2020/12/16 10:14:31;;;;;;;;;;;;;;;7.99;100.00;98956.44;5077864;28;19923;-74
2020/12/16 10:17:09;;;;;;;;;;;;;;;8.11;100.00;98945.63;5112974;28;19981;-74
2020/12/16 10:19:36;;;;;;;;;;;;;;;8.02;100.00;98941.72;5095679;28;19924;-74
2020/12/16 10:22:02;;;;;;;;;;;;;;;8.11;100.00;98944.81;5094699;28;19924;-74
2020/12/16 10:24:29;;;;;;;;;;;;;;;8.16;100.00;98930.47;5113074;28;20367;-74
2020/12/16 10:26:55;;;;;;;;;;;;;;;8.14;100.00;98932.88;5112654;28;19951;-75
2020/12/16 10:29:21;;;;;;;;;;;;;;;8.14;100.00;98927.31;5073982;28;19924;-75
2020/12/16 10:31:48;;;;;;;;;;;;;;;8.10;100.00;98932.91;5093047;28;19990;-74
2020/12/16 10:34:15;;;;;;;;;;;;;;;8.03;100.00;98946.88;5092297;28;19951;-74
2020/12/16 10:36:42;;;;;;;;;;;;;;;8.11;100.00;98912.22;5092273;28;19966;-74
2020/12/16 10:39:08;;;;;;;;;;;;;;;8.06;100.00;98934.13;5102023;28;20249;-75
2020/12/16 10:41:35;;;;;;;;;;;;;;;8.12;100.00;98918.59;5101087;28;19924;-73
2020/12/16 10:44:02;;;;;;;;;;;;;;;8.05;100.00;98925.00;5107783;28;20050;-74
2020/12/16 10:46:28;;;;;;;;;;;;;;;8.05;100.00;98925.00;5077980;28;20601;-76
2020/12/16 10:48:55;;;;;;;;;;;;;;;8.03;100.00;98938.53;5068354;28;19924;-77
2020/12/16 10:51:25;;;;;;;;;;;;;;;8.01;100.00;98956.84;5074276;28;20348;-76
2020/12/16 10:54:17;;;;;;;;;;;;;;;8.10;100.00;98938.47;5102008;27;20005;-76
2020/12/16 10:56:43;;;;;;;;;;;;;;;8.13;100.00;98926.53;5088613;28;20391;-76
2020/12/16 10:59:10;;;;;;;;;;;;;;;8.13;100.00;98929.31;5110004;28;19924;-76
2020/12/16 11:01:37;;;;;;;;;;;;;;;8.11;100.00;98940.06;5092669;28;19931;-74
2020/12/16 11:04:07;;;;;;;;;;;;;;;8.05;100.00;98919.44;5071963;28;19952;-76
2020/12/16 11:06:42;;;;;;;;;;;;;;;8.05;100.00;98911.09;5092504;28;20379;-80
2020/12/16 11:09:10;;;;;;;;;;;;;;;8.12;100.00;98929.72;5090867;28;20431;-80
2020/12/16 11:11:43;;;;;;;;;;;;;;;8.13;100.00;98937.66;5031768;28;20023;-87
2020/12/16 11:14:10;;;;;;;;;;;;;;;8.17;100.00;98921.72;5071882;28;19924;-76
2020/12/16 11:16:37;;;;;;;;;;;;;;;8.23;100.00;98939.59;5054376;28;20488;-78
2020/12/16 11:19:04;;;;;;;;;;;;;;;8.31;100.00;98913.28;5071118;28;19943;-78
2020/12/16 11:21:36;;;;;;;;;;;;;;;8.15;100.00;98915.00;5071555;28;19924;-79
2020/12/16 11:24:03;;;;;;;;;;;;;;;8.11;100.00;98894.72;5074166;28;19928;-79
2020/12/16 11:26:29;;;;;;;;;;;;;;;8.20;100.00;98909.75;5074388;28;20514;-79
2020/12/16 11:29:02;;;;;;;;;;;;;;;8.22;100.00;98912.13;5091495;28;19932;-78
2020/12/16 11:31:29;;;;;;;;;;;;;;;8.25;100.00;98908.56;5073464;28;19946;-78
2020/12/16 11:33:56;;;;;;;;;;;;;;;8.20;100.00;98929.25;5091721;28;20391;-78
2020/12/16 11:36:23;;;;;;;;;;;;;;;8.20;100.00;98909.75;5091465;28;20470;-77
2020/12/16 11:38:49;;;;;;;;;;;;;;;8.25;100.00;98898.22;5091597;28;19970;-77
2020/12/16 11:41:15;;;;;;;;;;;;;;;8.27;100.00;98920.06;5091847;28;20017;-77
2020/12/16 11:43:42;;;;;;;;;;;;;;;8.29;100.00;98906.50;5091021;28;19924;-77
2020/12/16 11:46:08;;;;;;;;;;;;;;;8.22;100.00;98918.53;5091644;28;19928;-77
2020/12/16 11:48:35;;;;;;;;;;;;;;;8.21;100.00;98883.50;5106726;28;19936;-77
2020/12/16 11:51:01;;;;;;;;;;;;;;;8.25;100.00;98901.00;5091408;28;19947;-77
2020/12/16 11:53:28;;;;;;;;;;;;;;;8.18;100.00;98917.72;5091738;28;19931;-77
2020/12/16 11:55:55;;;;;;;;;;;;;;;8.23;100.00;98886.69;5090717;28;20738;-77
2020/12/16 11:58:22;;;;;;;;;;;;;;;8.18;100.00;98897.47;5072735;28;20240;-77
2020/12/16 12:00:48;;;;;;;;;;;;;;;8.20;100.00;98904.19;5090910;28;19932;-77
2020/12/16 12:03:18;;;;;;;;;;;;;;;8.17;100.00;98905.00;5072929;28;19924;-77
2020/12/16 12:05:44;;;;;;;;;;;;;;;8.18;100.00;98900.25;5090853;28;19924;-77
2020/12/16 12:08:11;;;;;;;;;;;;;;;8.12;100.00;98888.75;5091580;28;20536;-79
2020/12/16 12:10:37;;;;;;;;;;;;;;;7.97;100.00;98878.94;5090946;28;19931;-75
2020/12/16 12:13:04;;;;;;;;;;;;;;;7.89;100.00;98869.06;5090866;28;19930;-76
2020/12/16 12:15:33;;;;;;;;;;;;;;;7.88;100.00;98863.91;5058693;28;19946;-78
2020/12/16 12:18:00;;;;;;;;;;;;;;;7.98;100.00;98888.09;5111003;28;20363;-76
2020/12/16 12:20:26;;;;;;;;;;;;;;;7.88;100.00;98878.63;5110918;28;20030;-76
2020/12/16 12:22:55;;;;;;;;;;;;;;;7.86;100.00;98897.72;5111247;28;20072;-77
2020/12/16 12:25:21;;;;;;;;;;;;;;;7.95;100.00;98886.13;5110628;28;20382;-77
2020/12/16 12:27:49;;;;;;;;;;;;;;;7.98;100.00;98872.16;5076569;28;20371;-76
2020/12/16 12:30:15;;;;;;;;;;;;;;;8.04;100.00;98898.34;5110621;28;19957;-77
2020/12/16 12:32:41;;;;;;;;;;;;;;;8.06;100.00;98897.94;5109066;28;19930;-77
2020/12/16 12:35:08;;;;;;;;;;;;;;;8.08;100.00;98901.91;5073904;28;19969;-74
2020/12/16 12:37:35;;;;;;;;;;;;;;;8.05;100.00;98897.16;5106427;28;20310;-75
2020/12/16 12:40:02;;;;;;;;;;;;;;;8.07;100.00;98894.78;5093278;28;19934;-76
2020/12/16 12:42:30;;;;;;;;;;;;;;;8.12;100.00;98904.69;5101726;28;19924;-76
2020/12/16 12:44:57;;;;;;;;;;;;;;;8.13;100.00;98895.91;5088423;28;20460;-76
2020/12/16 12:47:25;;;;;;;;;;;;;;;8.10;100.00;98902.31;5085620;28;19928;-76
2020/12/16 12:49:51;;;;;;;;;;;;;;;8.10;100.00;98893.97;5072639;28;19970;-74
2020/12/16 12:52:18;;;;;;;;;;;;;;;8.08;100.00;98901.91;5103484;28;19924;-73
2020/12/16 12:54:44;;;;;;;;;;;;;;;7.98;100.00;98869.38;5070129;28;19928;-73
2020/12/16 12:57:11;;;;;;;;;;;;;;;7.87;100.00;98885.41;5090137;28;19928;-73
2020/12/16 12:59:38;;;;;;;;;;;;;;;7.93;100.00;98888.53;5087816;28;19924;-73
2020/12/16 13:02:04;;;;;;;;;;;;;;;7.97;100.00;98873.38;5076288;28;20546;-77